CSAV Rio Lontue — A8IY6 — position and weather

sailwx.info

Track history (hours):
 
Tides and Currents Weather Stations Pressure Air Temp Water Temp Dewpoint Dewpoint Depression Visibility Wind Speed Wind Dir Waves Ship Positions

CSAV Rio Lontue

Last reported at 2018-Jun-19 00:56 UTC. Time now 2018-Jun-19 10:40 UTC.
Position N 37°13' E 002°25'.

Length 207.6 m; beam 29.8 m; draft 11.4 m.

Type: Ship. MMSI: 636018193.

Date/timePositionNaut miles runAvg speedWind from/ knotsBaromVisibWave heightAir tempDewpointWater temp
2018-Jun-19 00:56N 37°13' E 002°25'511.4
2018-Jun-19 00:30N 37°11' E 002°19'611.7
2018-Jun-19 00:00N 37°10' E 002°12'611.9
2018-Jun-18 23:30N 37°09' E 002°04'612.1
2018-Jun-18 23:00N 37°07' E 001°57'612.0
2018-Jun-18 22:29N 37°06' E 001°49'611.7
2018-Jun-18 21:56N 37°05' E 001°41'511.5
2018-Jun-18 21:29N 37°04' E 001°35'611.5
2018-Jun-18 20:56N 37°02' E 001°27'511.2
2018-Jun-18 20:30N 37°01' E 001°21'511.1
2018-Jun-18 20:00N 36°60' E 001°15'611.3
2018-Jun-18 19:30N 36°58' E 001°08'611.3
2018-Jun-18 18:57N 36°57' E 001°00'511.5
2018-Jun-18 18:30N 36°56' E 000°54'611.4
2018-Jun-18 18:00N 36°55' E 000°47'611.1
2018-Jun-18 17:30N 36°53' E 000°40'611.0
2018-Jun-18 17:00N 36°52' E 000°34'510.7
2018-Jun-18 16:30N 36°51' E 000°27'510.5
2018-Jun-18 16:00N 36°50' E 000°21'510.3
2018-Jun-18 15:29N 36°49' E 000°14'510.4
2018-Jun-18 15:00N 36°48' E 000°08'510.4
2018-Jun-18 14:29N 36°46' E 000°01'610.5
2018-Jun-18 13:56N 36°45' W 000°06'1210.4
2018-Jun-18 12:44N 36°41' W 000°21'410.8
2018-Jun-18 12:24N 36°40' W 000°25'510.8
2018-Jun-18 11:59N 36°39' W 000°30'710.3
2018-Jun-18 11:19N 36°38' W 000°39'310.1
2018-Jun-18 11:00N 36°38' W 000°43'510.5
2018-Jun-18 10:30N 36°37' W 000°49'2210.5
2018-Jun-18 08:22N 36°32' W 001°16'610.4
2018-Jun-18 07:47N 36°30' W 001°24'310.6
2018-Jun-18 07:28N 36°30' W 001°28'611.0
2018-Jun-18 06:57N 36°28' W 001°34'511.2
2018-Jun-18 06:30N 36°27' W 001°40'917.0
2018-Jun-18 05:58N 36°25' W 001°51'612.8
2018-Jun-18 05:29N 36°23' W 001°59'  
2018-Jun-15 18:21N 36°08' W 005°02'411.5
2018-Jun-15 18:00N 36°05' W 005°06'612.6
2018-Jun-15 17:30N 36°01' W 005°11'611.4
2018-Jun-15 17:00N 35°59' W 005°18'713.3
2018-Jun-15 16:30N 35°57' W 005°26'5 0.4
2018-Jun-15 04:14N 35°54' W 005°30'2 3.4
2018-Jun-15 03:32N 35°55' W 005°32'4 8.0
2018-Jun-15 03:05N 35°54' W 005°37'214.3
2018-Jun-15 02:56N 35°54' W 005°39'814.2
2018-Jun-15 02:22N 35°55' W 005°49'  
2018-Jun-12 11:17N 28°11' W 013°28'2 8.0
2018-Jun-12 10:59N 28°09' W 013°29'4 7.9
2018-Jun-12 10:26N 28°05' W 013°32'  
Track history (hours):
 
Tides and Currents Weather Stations Pressure Air Temp Water Temp Dewpoint Dewpoint Depression Visibility Wind Speed Wind Dir Waves Ship Positions

CSAV Rio Lontue

Last reported at 2018-Jun-19 00:56 UTC. Time now 2018-Jun-19 10:40 UTC.
Position N 37°13' E 002°25'.

Length 207.6 m; beam 29.8 m; draft 11.4 m.

Type: Ship. MMSI: 636018193.

Date/timePositionNaut miles runAvg speedWind from/ knotsBaromVisibWave heightAir tempDewpointWater temp
2018-Jun-19 00:56N 37°13' E 002°25'511.4
2018-Jun-19 00:30N 37°11' E 002°19'611.7
2018-Jun-19 00:00N 37°10' E 002°12'611.9
2018-Jun-18 23:30N 37°09' E 002°04'612.1
2018-Jun-18 23:00N 37°07' E 001°57'612.0
2018-Jun-18 22:29N 37°06' E 001°49'611.7
2018-Jun-18 21:56N 37°05' E 001°41'511.5
2018-Jun-18 21:29N 37°04' E 001°35'611.5
2018-Jun-18 20:56N 37°02' E 001°27'511.2
2018-Jun-18 20:30N 37°01' E 001°21'511.1
2018-Jun-18 20:00N 36°60' E 001°15'611.3
2018-Jun-18 19:30N 36°58' E 001°08'611.3
2018-Jun-18 18:57N 36°57' E 001°00'511.5
2018-Jun-18 18:30N 36°56' E 000°54'611.4
2018-Jun-18 18:00N 36°55' E 000°47'611.1
2018-Jun-18 17:30N 36°53' E 000°40'611.0
2018-Jun-18 17:00N 36°52' E 000°34'510.7
2018-Jun-18 16:30N 36°51' E 000°27'510.5
2018-Jun-18 16:00N 36°50' E 000°21'510.3
2018-Jun-18 15:29N 36°49' E 000°14'510.4
2018-Jun-18 15:00N 36°48' E 000°08'510.4
2018-Jun-18 14:29N 36°46' E 000°01'610.5
2018-Jun-18 13:56N 36°45' W 000°06'1210.4
2018-Jun-18 12:44N 36°41' W 000°21'410.8
2018-Jun-18 12:24N 36°40' W 000°25'510.8
2018-Jun-18 11:59N 36°39' W 000°30'710.3
2018-Jun-18 11:19N 36°38' W 000°39'310.1
2018-Jun-18 11:00N 36°38' W 000°43'510.5
2018-Jun-18 10:30N 36°37' W 000°49'2210.5
2018-Jun-18 08:22N 36°32' W 001°16'610.4
2018-Jun-18 07:47N 36°30' W 001°24'310.6
2018-Jun-18 07:28N 36°30' W 001°28'611.0
2018-Jun-18 06:57N 36°28' W 001°34'511.2
2018-Jun-18 06:30N 36°27' W 001°40'917.0
2018-Jun-18 05:58N 36°25' W 001°51'612.8
2018-Jun-18 05:29N 36°23' W 001°59'  
2018-Jun-15 18:21N 36°08' W 005°02'411.5
2018-Jun-15 18:00N 36°05' W 005°06'612.6
2018-Jun-15 17:30N 36°01' W 005°11'611.4
2018-Jun-15 17:00N 35°59' W 005°18'713.3
2018-Jun-15 16:30N 35°57' W 005°26'5 0.4
2018-Jun-15 04:14N 35°54' W 005°30'2 3.4
2018-Jun-15 03:32N 35°55' W 005°32'4 8.0
2018-Jun-15 03:05N 35°54' W 005°37'214.3
2018-Jun-15 02:56N 35°54' W 005°39'814.2
2018-Jun-15 02:22N 35°55' W 005°49'  
2018-Jun-12 11:17N 28°11' W 013°28'2 8.0
2018-Jun-12 10:59N 28°09' W 013°29'4 7.9
2018-Jun-12 10:26N 28°05' W 013°32'  

Dump ship's entire track history